Time;durP1;ratioP1;P1;durP2;ratioP2;P2;SDS_P1;SDS_P2;PMS_P1;PMS_P2;Temp;Humidity;BMP_temperature;BMP_pressure;BME280_temperature;BME280_humidity;BME280_pressure;Samples;Min_cycle;Max_cycle;Signal;HPM_P1;HPM_P2
2023/11/26 00:02:05;;;;;;;6.35;4.47;;;;;;;;;;4997942;28;20037;-95
2023/11/26 00:04:32;;;;;;;7.45;4.72;;;;;;;;;;4997332;28;20030;-94
2023/11/26 00:06:57;;;;;;;5.03;3.63;;;;;;;;;;4997461;28;20041;-96
2023/11/26 00:09:23;;;;;;;7.50;4.40;;;;;;;;;;4979954;28;20030;-94
2023/11/26 00:11:49;;;;;;;12.18;7.30;;;;;;;;;;4979370;28;20026;-93
2023/11/26 00:14:15;;;;;;;9.50;4.00;;;;;;;;;;4996935;28;20030;-95
2023/11/26 00:16:40;;;;;;;8.48;4.53;;;;;;;;;;4980113;28;20046;-93
2023/11/26 00:19:06;;;;;;;9.80;6.85;;;;;;;;;;4980032;28;20069;-93
2023/11/26 00:21:34;;;;;;;7.63;4.80;;;;;;;;;;4979973;28;20022;-94
2023/11/26 00:24:00;;;;;;;5.18;3.60;;;;;;;;;;4979660;28;20033;-93
2023/11/26 00:26:26;;;;;;;7.68;5.28;;;;;;;;;;4979572;28;20022;-94
2023/11/26 00:28:53;;;;;;;6.65;4.00;;;;;;;;;;4979655;28;20037;-90
2023/11/26 00:31:18;;;;;;;6.38;3.95;;;;;;;;;;4979392;28;20109;-92
2023/11/26 00:33:48;;;;;;;5.28;3.72;;;;;;;;;;4978315;28;20617;-88
2023/11/26 09:59:33;;;;;;;3.53;3.00;;;;;;;;;;5155175;23;20049;-86
2023/11/26 10:02:00;;;;;;;4.25;2.80;;;;;;;;;;4994771;28;20089;-92
2023/11/26 10:04:26;;;;;;;3.30;2.70;;;;;;;;;;4995331;28;20065;-89
2023/11/26 10:06:53;;;;;;;3.15;2.40;;;;;;;;;;4994478;28;20023;-89
2023/11/26 10:09:18;;;;;;;3.35;2.90;;;;;;;;;;4994011;28;20026;-84
2023/11/26 10:11:47;;;;;;;3.58;3.08;;;;;;;;;;4994141;28;20484;-84
2023/11/26 10:14:18;;;;;;;3.88;2.60;;;;;;;;;;4994051;28;20074;-84
2023/11/26 10:16:44;;;;;;;2.92;2.65;;;;;;;;;;4994057;28;20030;-89
2023/11/26 10:19:28;;;;;;;3.28;2.50;;;;;;;;;;4994159;28;20105;-87
2023/11/26 10:21:58;;;;;;;3.05;2.75;;;;;;;;;;4994049;28;20114;-88
2023/11/26 10:24:27;;;;;;;;;;;;;;;;;;4994382;28;20433;-85
2023/11/26 10:26:58;;;;;;;3.73;2.50;;;;;;;;;;4993704;28;19914;-84
2023/11/26 10:29:30;;;;;;;3.75;2.78;;;;;;;;;;4993875;28;20026;-86
2023/11/26 10:32:04;;;;;;;3.95;2.33;;;;;;;;;;4994063;28;20023;-88
2023/11/26 10:34:32;;;;;;;3.15;2.50;;;;;;;;;;4977444;28;20401;-86
2023/11/26 10:36:57;;;;;;;3.33;2.65;;;;;;;;;;4993882;28;20091;-87
2023/11/26 10:39:23;;;;;;;3.35;2.72;;;;;;;;;;4993845;28;20534;-87
2023/11/26 10:41:49;;;;;;;4.15;2.92;;;;;;;;;;4993948;28;20026;-88
2023/11/26 10:44:16;;;;;;;4.50;2.85;;;;;;;;;;4993584;28;20469;-88
2023/11/26 10:46:44;;;;;;;4.90;3.15;;;;;;;;;;4976269;28;20376;-89
2023/11/26 10:49:30;;;;;;;4.18;3.10;;;;;;;;;;4976412;28;20038;-89
2023/11/26 10:52:30;;;;;;;4.30;2.83;;;;;;;;;;4977036;28;20038;-90
2023/11/26 10:55:10;;;;;;;6.85;5.15;;;;;;;;;;4993792;28;20023;-90
2023/11/26 10:57:39;;;;;;;;;;;;;;;;;;4996088;28;20033;-90
2023/11/26 11:00:08;;;;;;;2.95;2.40;;;;;;;;;;4997474;28;19917;-89
2023/11/26 11:02:36;;;;;;;3.30;2.50;;;;;;;;;;4997204;28;20031;-86
2023/11/26 11:05:06;;;;;;;3.55;2.60;;;;;;;;;;4997845;28;20027;-87
2023/11/26 11:07:34;;;;;;;2.83;2.30;;;;;;;;;;4997048;28;20042;-89
2023/11/26 11:10:18;;;;;;;2.45;2.25;;;;;;;;;;4997364;28;20049;-85
2023/11/26 11:12:50;;;;;;;2.55;2.03;;;;;;;;;;4997037;28;20022;-86
2023/11/26 11:15:16;;;;;;;3.22;2.60;;;;;;;;;;4997130;28;20023;-88
2023/11/26 11:17:42;;;;;;;2.33;1.90;;;;;;;;;;4997059;28;20022;-87
2023/11/26 11:20:08;;;;;;;1.95;1.65;;;;;;;;;;4997177;28;20023;-88
2023/11/26 11:22:42;;;;;;;3.30;1.73;;;;;;;;;;4997385;28;20420;-86
2023/11/26 11:25:11;;;;;;;2.53;2.13;;;;;;;;;;4997219;28;20030;-83
2023/11/26 11:28:00;;;;;;;2.45;2.00;;;;;;;;;;4996823;28;20030;-88
2023/11/26 11:30:31;;;;;;;1.60;1.50;;;;;;;;;;4996570;28;20022;-86
2023/11/26 11:33:04;;;;;;;1.95;1.50;;;;;;;;;;4998667;28;20027;-85
2023/11/26 11:35:45;;;;;;;1.70;1.60;;;;;;;;;;4998994;28;20027;-81
2023/11/26 11:38:12;;;;;;;1.70;1.52;;;;;;;;;;4997546;28;20026;-81
2023/11/26 11:41:13;;;;;;;2.25;1.55;;;;;;;;;;4997821;28;20026;-85
2023/11/26 11:43:42;;;;;;;1.35;1.25;;;;;;;;;;4998142;28;20141;-81
2023/11/26 11:46:26;;;;;;;2.45;1.77;;;;;;;;;;4997530;28;20058;-82
2023/11/26 11:48:59;;;;;;;2.67;1.95;;;;;;;;;;4997240;28;20481;-82
2023/11/26 11:51:34;;;;;;;1.70;1.52;;;;;;;;;;4997425;28;20023;-82
2023/11/26 11:54:09;;;;;;;1.55;1.30;;;;;;;;;;4997605;28;20022;-81
2023/11/26 11:56:39;;;;;;;2.65;1.30;;;;;;;;;;4996891;28;20057;-85
2023/11/26 11:59:05;;;;;;;1.50;1.35;;;;;;;;;;4996950;28;20030;-86
2023/11/26 12:01:31;;;;;;;1.15;1.05;;;;;;;;;;4979906;28;20034;-91
2023/11/26 12:04:00;;;;;;;1.20;1.10;;;;;;;;;;4979723;28;20467;-87
2023/11/26 12:06:26;;;;;;;1.20;1.10;;;;;;;;;;4978888;28;20428;-87
2023/11/26 12:09:04;;;;;;;1.25;1.15;;;;;;;;;;4996634;28;20049;-86
2023/11/26 12:11:30;;;;;;;1.02;0.93;;;;;;;;;;4979237;28;20106;-86
2023/11/26 12:13:55;;;;;;;1.00;1.00;;;;;;;;;;4979114;28;20546;-87
2023/11/26 12:16:22;;;;;;;1.73;0.93;;;;;;;;;;4996324;28;20030;-88
2023/11/26 12:18:55;;;;;;;1.00;0.98;;;;;;;;;;4996186;28;20069;-85
2023/11/26 12:21:22;;;;;;;1.40;1.30;;;;;;;;;;4996569;28;20057;-90
2023/11/26 12:23:47;;;;;;;2.05;1.45;;;;;;;;;;4996186;28;20423;-86
2023/11/26 12:26:12;;;;;;;2.08;1.83;;;;;;;;;;4996305;28;20027;-87
2023/11/26 12:28:42;;;;;;;1.40;1.30;;;;;;;;;;4979055;28;20485;-92
2023/11/26 12:31:09;;;;;;;1.10;1.00;;;;;;;;;;4980051;28;20023;-92
2023/11/26 12:33:35;;;;;;;1.00;1.00;;;;;;;;;;4997752;28;20030;-91
2023/11/26 12:36:03;;;;;;;2.55;1.08;;;;;;;;;;4979947;28;20037;-89
2023/11/26 12:38:28;;;;;;;0.90;0.90;;;;;;;;;;4997229;28;20025;-91
2023/11/26 12:40:56;;;;;;;0.75;0.75;;;;;;;;;;4997505;28;20030;-91
2023/11/26 12:43:21;;;;;;;0.80;0.80;;;;;;;;;;4996704;28;20022;-87
2023/11/26 12:45:48;;;;;;;1.30;1.20;;;;;;;;;;4996976;28;20492;-85
2023/11/26 12:48:14;;;;;;;0.80;0.80;;;;;;;;;;4994452;28;20018;-86
2023/11/26 12:50:44;;;;;;;1.65;0.85;;;;;;;;;;4995235;28;20436;-86
2023/11/26 12:53:11;;;;;;;0.95;0.90;;;;;;;;;;4992733;28;20032;-86
2023/11/26 12:55:46;;;;;;;1.38;1.00;;;;;;;;;;4995393;28;20102;-86
2023/11/26 12:58:23;;;;;;;1.10;0.95;;;;;;;;;;4994191;28;20042;-86
2023/11/26 13:00:51;;;;;;;1.00;0.80;;;;;;;;;;4994110;28;20042;-88
2023/11/26 13:03:20;;;;;;;0.88;0.88;;;;;;;;;;4994368;28;20022;-87
2023/11/26 13:05:50;;;;;;;1.75;1.40;;;;;;;;;;4994393;28;20022;-87
2023/11/26 13:08:23;;;;;;;1.23;1.13;;;;;;;;;;4994162;28;20133;-86
2023/11/26 13:10:50;;;;;;;1.10;1.00;;;;;;;;;;4995615;28;20114;-87
2023/11/26 13:13:27;;;;;;;1.88;0.90;;;;;;;;;;4994420;28;20037;-88
2023/11/26 13:15:55;;;;;;;1.13;1.05;;;;;;;;;;4995303;28;20037;-88
2023/11/26 13:18:20;;;;;;;0.90;0.90;;;;;;;;;;4995163;28;20549;-85
2023/11/26 13:20:49;;;;;;;0.98;0.90;;;;;;;;;;4994539;28;20109;-86
2023/11/26 13:23:20;;;;;;;0.90;0.90;;;;;;;;;;4993903;28;20031;-86
2023/11/26 13:25:51;;;;;;;1.30;1.20;;;;;;;;;;4993648;28;20064;-86
2023/11/26 13:28:20;;;;;;;1.20;1.10;;;;;;;;;;4994008;28;20030;-89
2023/11/26 13:30:46;;;;;;;1.30;1.20;;;;;;;;;;4994976;28;20026;-87
2023/11/26 13:33:12;;;;;;;1.70;1.60;;;;;;;;;;4993448;28;20041;-87
2023/11/26 13:35:38;;;;;;;1.30;1.20;;;;;;;;;;4993145;28;20036;-87
2023/11/26 13:38:08;;;;;;;0.90;0.90;;;;;;;;;;4994840;28;20029;-88
2023/11/26 13:40:39;;;;;;;1.23;1.10;;;;;;;;;;4995571;28;20030;-90
2023/11/26 13:43:05;;;;;;;1.63;1.08;;;;;;;;;;4996292;28;20110;-86
2023/11/26 13:45:31;;;;;;;1.13;1.00;;;;;;;;;;4991516;28;20026;-85
2023/11/26 13:47:56;;;;;;;0.90;0.90;;;;;;;;;;4990488;28;20461;-88
2023/11/26 13:50:22;;;;;;;1.23;0.85;;;;;;;;;;4992380;28;20031;-90
2023/11/26 13:52:48;;;;;;;0.93;0.93;;;;;;;;;;5006082;28;20420;-88
2023/11/26 13:55:14;;;;;;;0.88;0.88;;;;;;;;;;4993030;28;20022;-87
2023/11/26 13:57:42;;;;;;;1.10;1.00;;;;;;;;;;4991426;28;20114;-89
2023/11/26 14:00:10;;;;;;;1.05;0.98;;;;;;;;;;4995182;28;20095;-88
2023/11/26 14:02:36;;;;;;;1.00;1.00;;;;;;;;;;4991654;28;20122;-89
2023/11/26 14:05:05;;;;;;;8.85;6.38;;;;;;;;;;4995172;28;20062;-90
2023/11/26 14:07:31;;;;;;;2.17;1.97;;;;;;;;;;5012237;28;20022;-88
2023/11/26 14:09:57;;;;;;;8.50;5.80;;;;;;;;;;4994964;28;20495;-90
2023/11/26 14:12:23;;;;;;;4.72;2.80;;;;;;;;;;4994669;28;20377;-88
2023/11/26 14:14:48;;;;;;;6.93;4.15;;;;;;;;;;4994717;28;20030;-88
2023/11/26 14:17:14;;;;;;;18.17;11.95;;;;;;;;;;4994581;28;20025;-88
2023/11/26 14:19:39;;;;;;;1.73;1.10;;;;;;;;;;4991333;28;20023;-89
2023/11/26 14:22:06;;;;;;;18.42;9.57;;;;;;;;;;4992125;28;20156;-90
2023/11/26 14:24:32;;;;;;;1.42;1.33;;;;;;;;;;4991647;28;20608;-89
2023/11/26 14:26:57;;;;;;;4.00;3.70;;;;;;;;;;4992950;28;20121;-89
2023/11/26 14:29:23;;;;;;;1.95;1.73;;;;;;;;;;4994553;28;20030;-88
2023/11/26 14:31:48;;;;;;;1.48;1.30;;;;;;;;;;4992241;28;20389;-88
2023/11/26 14:34:15;;;;;;;1.30;1.20;;;;;;;;;;4998679;28;20088;-89
2023/11/26 14:36:41;;;;;;;2.00;1.77;;;;;;;;;;5012405;28;20425;-89
2023/11/26 14:39:07;;;;;;;5.70;2.88;;;;;;;;;;4995887;28;20030;-87
2023/11/26 14:41:33;;;;;;;3.03;1.88;;;;;;;;;;4994835;28;20038;-89
2023/11/26 14:43:58;;;;;;;16.38;9.70;;;;;;;;;;4995728;28;20022;-88
2023/11/26 14:46:24;;;;;;;27.55;13.38;;;;;;;;;;4997761;28;20121;-87
2023/11/26 14:48:50;;;;;;;2.90;2.10;;;;;;;;;;4998598;28;20523;-90
2023/11/26 14:51:15;;;;;;;2.53;2.28;;;;;;;;;;5000626;28;20049;-88
2023/11/26 14:53:41;;;;;;;1.90;1.40;;;;;;;;;;4997558;28;20026;-91
2023/11/26 14:56:08;;;;;;;1.42;1.33;;;;;;;;;;5012036;28;20499;-89
2023/11/26 14:58:35;;;;;;;2.30;2.10;;;;;;;;;;4998444;28;20468;-89
2023/11/26 15:01:02;;;;;;;4.22;3.03;;;;;;;;;;4995127;28;20054;-88
2023/11/26 15:03:27;;;;;;;5.90;4.43;;;;;;;;;;4998376;28;20120;-87
2023/11/26 15:05:53;;;;;;;3.55;2.88;;;;;;;;;;4997061;28;20165;-89
2023/11/26 15:08:18;;;;;;;3.95;2.90;;;;;;;;;;4994494;28;20524;-88
2023/11/26 15:10:45;;;;;;;2.75;2.33;;;;;;;;;;4996112;28;20031;-89
2023/11/26 15:13:10;;;;;;;2.03;1.83;;;;;;;;;;4997901;28;20109;-88
2023/11/26 15:15:36;;;;;;;1.45;1.35;;;;;;;;;;4997500;28;20057;-88
2023/11/26 15:18:01;;;;;;;4.50;3.15;;;;;;;;;;4994453;28;20034;-88
2023/11/26 15:20:27;;;;;;;6.55;5.63;;;;;;;;;;4994994;28;20027;-89
2023/11/26 15:22:52;;;;;;;4.03;3.63;;;;;;;;;;4995457;28;20034;-87
2023/11/26 15:25:18;;;;;;;7.95;6.15;;;;;;;;;;5007677;28;20057;-91
2023/11/26 15:27:43;;;;;;;8.45;5.10;;;;;;;;;;4999518;28;20068;-88
2023/11/26 15:30:10;;;;;;;10.48;7.40;;;;;;;;;;5017041;28;20105;-88
2023/11/26 15:32:35;;;;;;;15.77;9.25;;;;;;;;;;4999899;28;20430;-88
2023/11/26 15:35:00;;;;;;;3.47;2.75;;;;;;;;;;4999585;28;20037;-86
2023/11/26 15:37:26;;;;;;;3.50;2.97;;;;;;;;;;4999606;28;20030;-89
2023/11/26 15:39:52;;;;;;;1.30;1.20;;;;;;;;;;4999444;28;20018;-86
2023/11/26 15:42:18;;;;;;;1.60;1.50;;;;;;;;;;4998910;28;20026;-88
2023/11/26 15:44:44;;;;;;;1.02;1.00;;;;;;;;;;4998962;28;20420;-86
2023/11/26 15:47:11;;;;;;;1.52;1.02;;;;;;;;;;5016616;28;20025;-88
2023/11/26 15:49:38;;;;;;;0.80;0.80;;;;;;;;;;4999148;28;20030;-86
2023/11/26 15:52:05;;;;;;;0.95;0.80;;;;;;;;;;5016415;28;20109;-85
2023/11/26 15:54:30;;;;;;;1.92;1.50;;;;;;;;;;5016124;28;20468;-86
2023/11/26 15:56:57;;;;;;;1.00;1.00;;;;;;;;;;4998173;28;20046;-87
2023/11/26 15:59:23;;;;;;;0.93;0.93;;;;;;;;;;4972059;28;21148;-91
2023/11/26 16:01:49;;;;;;;0.80;0.80;;;;;;;;;;4980131;28;20057;-88
2023/11/26 16:04:14;;;;;;;0.98;0.98;;;;;;;;;;4977012;28;20035;-88
2023/11/26 16:06:40;;;;;;;1.00;1.00;;;;;;;;;;4959595;28;20497;-86
2023/11/26 16:09:06;;;;;;;1.05;0.93;;;;;;;;;;4976829;28;20030;-87
2023/11/26 16:11:31;;;;;;;1.15;1.13;;;;;;;;;;4959517;28;20114;-87
2023/11/26 16:13:57;;;;;;;0.80;0.77;;;;;;;;;;4976655;28;20027;-87
2023/11/26 16:16:22;;;;;;;1.02;0.90;;;;;;;;;;4959323;28;20174;-87
2023/11/26 16:18:51;;;;;;;3.03;1.95;;;;;;;;;;4959495;28;20038;-85
2023/11/26 16:21:20;;;;;;;1.48;0.90;;;;;;;;;;4963692;28;20039;-92
2023/11/26 16:23:46;;;;;;;;;;;;;;;;;;4981709;28;20027;-90
2023/11/26 16:26:11;;;;;;;1.40;1.30;;;;;;;;;;4991032;28;19981;-93
2023/11/26 16:28:37;;;;;;;1.23;1.10;;;;;;;;;;4997883;28;20439;-89
2023/11/26 16:31:43;;;;;;;1.05;0.90;;;;;;;;;;4978194;23;20054;-92
2023/11/26 16:34:08;;;;;;;0.90;0.90;;;;;;;;;;4956958;29;20043;-91
2023/11/26 16:36:34;;;;;;;0.90;0.90;;;;;;;;;;4950140;29;20423;-91
2023/11/26 16:39:05;;;;;;;2.30;0.90;;;;;;;;;;4957767;29;20057;-87
2023/11/26 16:41:31;;;;;;;0.88;0.80;;;;;;;;;;4956886;29;20489;-87
2023/11/26 16:43:56;;;;;;;1.48;0.90;;;;;;;;;;4956869;29;20027;-86
2023/11/26 16:46:22;;;;;;;1.00;0.93;;;;;;;;;;4939202;29;20538;-86
2023/11/26 16:48:47;;;;;;;0.95;0.95;;;;;;;;;;4939811;29;20038;-87
2023/11/26 16:51:13;;;;;;;1.42;1.20;;;;;;;;;;4942204;29;20031;-92
2023/11/26 16:53:38;;;;;;;0.80;0.80;;;;;;;;;;4941085;28;20031;-87
2023/11/26 16:56:08;;;;;;;1.00;1.00;;;;;;;;;;4955593;29;20035;-85
2023/11/26 16:58:35;;;;;;;1.00;1.00;;;;;;;;;;4939169;29;20031;-85
2023/11/26 17:01:05;;;;;;;1.15;1.10;;;;;;;;;;4956693;29;20027;-85
2023/11/26 17:03:31;;;;;;;1.30;1.20;;;;;;;;;;4939062;29;20029;-85
2023/11/26 17:05:57;;;;;;;1.15;1.08;;;;;;;;;;4956036;29;20098;-86
2023/11/26 17:08:26;;;;;;;1.50;1.00;;;;;;;;;;4938962;29;20027;-85
2023/11/26 17:10:52;;;;;;;1.15;1.05;;;;;;;;;;4939135;29;20024;-86
2023/11/26 17:13:18;;;;;;;1.83;1.30;;;;;;;;;;4956231;29;20023;-85
2023/11/26 17:15:44;;;;;;;1.05;1.05;;;;;;;;;;4956362;29;20027;-85
2023/11/26 17:18:10;;;;;;;1.10;0.90;;;;;;;;;;4939222;29;20039;-85
2023/11/26 17:20:36;;;;;;;2.92;2.25;;;;;;;;;;4956063;29;20031;-85
2023/11/26 17:23:02;;;;;;;1.80;1.63;;;;;;;;;;4939254;29;20382;-85
2023/11/26 17:25:31;;;;;;;1.20;1.10;;;;;;;;;;4938874;29;20031;-85
2023/11/26 17:28:00;;;;;;;1.08;1.02;;;;;;;;;;4955880;29;20090;-86
2023/11/26 17:30:26;;;;;;;0.90;0.90;;;;;;;;;;4938747;29;20039;-85
2023/11/26 17:32:52;;;;;;;1.15;1.00;;;;;;;;;;4938644;29;20019;-85
2023/11/26 17:35:19;;;;;;;1.40;1.10;;;;;;;;;;4938741;29;20078;-85
2023/11/26 17:37:45;;;;;;;0.90;0.90;;;;;;;;;;4938688;29;20470;-85
2023/11/26 17:40:11;;;;;;;2.95;1.70;;;;;;;;;;4938510;29;20038;-85
2023/11/26 17:42:37;;;;;;;2.80;1.70;;;;;;;;;;4955722;29;20462;-85
2023/11/26 17:45:04;;;;;;;2.97;2.30;;;;;;;;;;4955796;29;20023;-86
2023/11/26 17:47:30;;;;;;;1.20;1.08;;;;;;;;;;4938961;29;20037;-86
2023/11/26 17:49:57;;;;;;;1.70;1.60;;;;;;;;;;4938457;29;20050;-86
2023/11/26 17:52:23;;;;;;;16.38;9.10;;;;;;;;;;4938620;29;20034;-86
2023/11/26 17:54:48;;;;;;;10.65;5.85;;;;;;;;;;4938481;29;20027;-87
2023/11/26 17:57:17;;;;;;;7.53;4.00;;;;;;;;;;4938431;29;20031;-86
2023/11/26 17:59:42;;;;;;;2.15;1.88;;;;;;;;;;4955737;29;20151;-86
2023/11/26 18:02:08;;;;;;;2.20;2.00;;;;;;;;;;4955918;29;20110;-86
2023/11/26 18:04:33;;;;;;;1.58;1.27;;;;;;;;;;4938521;29;20480;-85
2023/11/26 18:06:59;;;;;;;1.52;0.90;;;;;;;;;;4955286;29;20075;-86
2023/11/26 18:09:25;;;;;;;0.90;0.90;;;;;;;;;;4955489;29;20050;-86
2023/11/26 18:11:51;;;;;;;1.20;1.10;;;;;;;;;;4938233;29;20027;-88
2023/11/26 18:14:19;;;;;;;1.27;1.10;;;;;;;;;;4955419;29;20027;-84
2023/11/26 18:16:45;;;;;;;1.05;1.05;;;;;;;;;;4955085;29;20027;-85
2023/11/26 18:19:11;;;;;;;0.90;0.90;;;;;;;;;;4938193;29;20031;-86
2023/11/26 18:21:45;;;;;;;1.10;1.00;;;;;;;;;;4938203;29;20364;-85
2023/11/26 18:24:11;;;;;;;1.23;0.95;;;;;;;;;;4938025;29;20019;-87
2023/11/26 18:26:37;;;;;;;0.98;0.98;;;;;;;;;;4938194;29;20031;-87
2023/11/26 18:29:02;;;;;;;3.92;1.45;;;;;;;;;;4955309;29;20038;-88
2023/11/26 18:31:28;;;;;;;1.02;0.93;;;;;;;;;;4937895;29;20045;-86
2023/11/26 18:33:53;;;;;;;1.30;1.20;;;;;;;;;;4955193;29;20023;-87
2023/11/26 18:36:19;;;;;;;1.15;1.05;;;;;;;;;;4938150;29;20023;-87
2023/11/26 18:38:45;;;;;;;0.93;0.93;;;;;;;;;;4955127;29;20106;-88
2023/11/26 18:41:22;;;;;;;1.17;1.00;;;;;;;;;;4955569;29;20514;-86
2023/11/26 18:43:48;;;;;;;2.22;1.95;;;;;;;;;;4937752;29;20377;-86
2023/11/26 18:46:15;;;;;;;2.97;2.45;;;;;;;;;;4937892;29;20023;-85
2023/11/26 18:48:41;;;;;;;2.45;2.15;;;;;;;;;;4955339;29;20031;-86
2023/11/26 18:51:06;;;;;;;2.72;2.53;;;;;;;;;;4937845;29;20543;-86
2023/11/26 18:53:32;;;;;;;2.35;2.00;;;;;;;;;;4937762;29;20028;-87
2023/11/26 18:55:57;;;;;;;2.72;1.90;;;;;;;;;;4955564;29;20522;-85
2023/11/26 18:58:23;;;;;;;1.95;1.40;;;;;;;;;;4955172;29;20115;-85
2023/11/26 19:00:52;;;;;;;1.60;1.50;;;;;;;;;;4937506;29;20034;-86
2023/11/26 19:03:17;;;;;;;1.92;1.70;;;;;;;;;;4955106;29;20114;-85
2023/11/26 19:05:42;;;;;;;2.28;1.75;;;;;;;;;;4955054;29;20063;-85
2023/11/26 19:08:09;;;;;;;3.03;2.67;;;;;;;;;;4937851;29;20114;-85
2023/11/26 19:10:34;;;;;;;1.48;1.38;;;;;;;;;;4955453;29;20159;-83
2023/11/26 19:13:00;;;;;;;2.17;1.20;;;;;;;;;;4955189;29;20526;-87
2023/11/26 19:15:25;;;;;;;2.35;1.52;;;;;;;;;;4938392;29;20098;-86
2023/11/26 19:17:51;;;;;;;1.60;1.50;;;;;;;;;;4939562;29;20028;-84
2023/11/26 19:20:16;;;;;;;1.70;1.50;;;;;;;;;;4941916;29;20023;-87
2023/11/26 23:36:08;;;;;;;3.70;2.90;;;;;;;;;;4978769;28;20485;-87
